Aérodrome :
LOGIN :

S'inscrire | Disclaimer

   EN    FR    IT 

 










Légende :    VFR   VFR Marginal   IFR   IFR Intensif   IFR Très Intensif
Visi : 
Plafond : 
>= 8 km
>= 3000ft
5 à 8 km
1000 à 3000 ft
1500m à 5 km
500 à 1000 ft
800 à 1500m
200 à 500 ft
< 800m
< 200 ft
Symboles :   Orages  Brouillard  Fortes neiges  Fortes précipitations  Vent > 20 kt
SIGMETs :   Divers  Orages  Givrage  Turbulence  Onde Orograph.  Cendres Volcan.






- Altitude de l'aérodrome : 290 ft
- Code IATA : LAI


LFRO - Lannion

DERNIER METAR :
  • 140400Z AUTO 24011KT 3000 -RA BR OVC003 17/17 Q1015

METARs EXPIRÉS :
  • 140330Z AUTO 24010KT 210V270 2700 -RA BR OVC003 17/17 Q1015
  • 140300Z AUTO 25011KT 2900 -RA BR OVC002 17/17 Q1015
  • 140230Z AUTO 25011KT 3000 -RA BR VV/// 17/17 Q1015
  • 140200Z AUTO 26012KT 2000 -RA BR VV/// 17/17 Q1015
  • 140130Z AUTO 25011KT 1800 -RA BR VV/// 18/17 Q1015

Prévision TAF périmée.



MET'MAP, la Météo Aéronautique d'un coup d'oeil ! - Copyright ORBIFLY Décembre 2007 - Disclaimer

ORBIFLY MET'MAP TEAM :

Programmation & Développement : Alexandra Zaïnal
Sur une idée originale de : Baudouin d'Aumeries
Assistance à la programmation : Marc-Olivier Méhu
Soutien technique & logistique : Manuel Goepfert

Contact : metmap@orbifly.com




SOURCES & CREDITS :

   NOAA